Main page
METAR-TAF:

METAR-TAF

Airports :

Pointe Noire Airport

Pointe-Noire, Congo

latitude: 04-49S, longitude: 011-54E, elevation: 17 m

Current weather observation

The report was made 1 hour and 7 minutes ago, at 21:00 UTC
Calm wind
Temperature 25°C
Humidity 94%
Pressure 1014 hPa
Visibility: 8000 m
Few clouds at a height of 800 ft

METAR: FCPP 012100Z 00000KT 8000 FEW008 25/24 Q1014 NOSIG

Time: 23:07 (22:07 UTC)

Forecast

The report was made 5 hours and 7 minutes ago, at 17:00 UTC
Forecast valid from 01 at 18 UTC to 02 at 18 UTC
Wind 6 kt from the Southwest
Visibility: 8000 m
Scattered clouds at a height of 1000 ft
Probability 30%
from 02 at 04 UTC to 02 at 07 UTC
Visibility: 4000 m
mist

TAF: FCPP 011700Z 0118/0218 22006KT 8000 SCT010 PROB30 0204/0207 4000 BR

Weather observations and forecasts of more than 4000 airports (METAR and TAF reports).

The available stations are represented by yellow and red dots on the map.

Hover mouse over dot to see the name of the station.

Then click to see weather observations and forecasts.

To change the map : click on the green buttons with a black cross to zoom in, on the green button with a dash to zoom out, or on the green arrows for adjacent maps.


METAR-TAF: